sensor_id;sensor_type;location;lat;lon;timestamp;P1;durP1;ratioP1;P2;durP2;ratioP2
56770;SDS011;42641;59.794;17.616;2023-03-01T00:01:20;0.97;;;0.80;;
56770;SDS011;42641;59.794;17.616;2023-03-01T00:03:48;2.07;;;0.90;;
56770;SDS011;42641;59.794;17.616;2023-03-01T00:06:16;3.63;;;1.10;;
56770;SDS011;42641;59.794;17.616;2023-03-01T00:08:43;3.57;;;0.87;;
56770;SDS011;42641;59.794;17.616;2023-03-01T00:11:16;1.80;;;0.90;;
56770;SDS011;42641;59.794;17.616;2023-03-01T00:13:45;4.23;;;1.00;;
56770;SDS011;42641;59.794;17.616;2023-03-01T00:16:17;3.33;;;1.20;;
56770;SDS011;42641;59.794;17.616;2023-03-01T00:18:46;3.70;;;0.90;;
56770;SDS011;42641;59.794;17.616;2023-03-01T00:21:12;1.70;;;1.10;;
56770;SDS011;42641;59.794;17.616;2023-03-01T00:23:39;3.70;;;1.60;;
56770;SDS011;42641;59.794;17.616;2023-03-01T00:26:07;1.43;;;0.93;;
56770;SDS011;42641;59.794;17.616;2023-03-01T00:28:38;2.87;;;0.90;;
56770;SDS011;42641;59.794;17.616;2023-03-01T00:31:09;2.63;;;0.97;;
56770;SDS011;42641;59.794;17.616;2023-03-01T00:33:38;1.37;;;0.80;;
56770;SDS011;42641;59.794;17.616;2023-03-01T00:36:04;0.97;;;0.90;;
56770;SDS011;42641;59.794;17.616;2023-03-01T00:38:34;1.93;;;0.90;;
56770;SDS011;42641;59.794;17.616;2023-03-01T00:41:05;2.17;;;0.83;;
56770;SDS011;42641;59.794;17.616;2023-03-01T00:43:39;1.03;;;0.80;;
56770;SDS011;42641;59.794;17.616;2023-03-01T00:46:12;1.27;;;0.93;;
56770;SDS011;42641;59.794;17.616;2023-03-01T00:48:40;1.87;;;0.90;;
56770;SDS011;42641;59.794;17.616;2023-03-01T00:51:11;1.33;;;0.80;;
56770;SDS011;42641;59.794;17.616;2023-03-01T00:53:39;1.07;;;0.73;;
56770;SDS011;42641;59.794;17.616;2023-03-01T00:56:06;1.57;;;1.00;;
56770;SDS011;42641;59.794;17.616;2023-03-01T00:58:34;3.03;;;1.20;;
56770;SDS011;42641;59.794;17.616;2023-03-01T01:01:01;2.50;;;1.10;;
56770;SDS011;42641;59.794;17.616;2023-03-01T01:03:46;1.13;;;1.00;;
56770;SDS011;42641;59.794;17.616;2023-03-01T01:06:15;1.87;;;0.97;;
56770;SDS011;42641;59.794;17.616;2023-03-01T01:08:46;1.60;;;1.10;;
56770;SDS011;42641;59.794;17.616;2023-03-01T01:11:13;1.33;;;1.00;;
56770;SDS011;42641;59.794;17.616;2023-03-01T01:13:40;3.93;;;1.00;;
56770;SDS011;42641;59.794;17.616;2023-03-01T01:16:07;4.10;;;1.03;;
56770;SDS011;42641;59.794;17.616;2023-03-01T01:18:34;1.60;;;0.90;;
56770;SDS011;42641;59.794;17.616;2023-03-01T01:21:08;1.33;;;1.10;;
56770;SDS011;42641;59.794;17.616;2023-03-01T01:23:36;0.83;;;0.63;;
56770;SDS011;42641;59.794;17.616;2023-03-01T01:26:19;1.90;;;1.10;;
56770;SDS011;42641;59.794;17.616;2023-03-01T01:28:49;2.43;;;1.23;;
56770;SDS011;42641;59.794;17.616;2023-03-01T01:31:16;1.33;;;0.80;;
56770;SDS011;42641;59.794;17.616;2023-03-01T01:33:43;0.93;;;0.87;;
56770;SDS011;42641;59.794;17.616;2023-03-01T01:36:10;4.20;;;1.17;;
56770;SDS011;42641;59.794;17.616;2023-03-01T01:38:37;1.70;;;1.00;;
56770;SDS011;42641;59.794;17.616;2023-03-01T01:41:05;0.90;;;0.80;;
56770;SDS011;42641;59.794;17.616;2023-03-01T01:43:34;2.27;;;0.80;;
56770;SDS011;42641;59.794;17.616;2023-03-01T01:49:04;3.10;;;0.80;;
56770;SDS011;42641;59.794;17.616;2023-03-01T01:51:51;1.37;;;0.87;;
56770;SDS011;42641;59.794;17.616;2023-03-01T01:54:25;1.90;;;0.70;;
56770;SDS011;42641;59.794;17.616;2023-03-01T01:57:14;0.60;;;0.53;;
56770;SDS011;42641;59.794;17.616;2023-03-01T01:59:48;1.17;;;0.70;;
56770;SDS011;42641;59.794;17.616;2023-03-01T02:02:18;1.83;;;1.00;;
56770;SDS011;42641;59.794;17.616;2023-03-01T02:04:45;1.13;;;0.80;;
56770;SDS011;42641;59.794;17.616;2023-03-01T02:07:16;1.63;;;0.67;;
56770;SDS011;42641;59.794;17.616;2023-03-01T02:09:46;0.73;;;0.70;;
56770;SDS011;42641;59.794;17.616;2023-03-01T02:12:14;2.43;;;0.93;;
56770;SDS011;42641;59.794;17.616;2023-03-01T02:14:43;1.10;;;0.77;;
56770;SDS011;42641;59.794;17.616;2023-03-01T02:17:11;1.20;;;0.80;;
56770;SDS011;42641;59.794;17.616;2023-03-01T02:19:46;1.23;;;0.70;;
56770;SDS011;42641;59.794;17.616;2023-03-01T02:22:28;1.80;;;1.00;;
56770;SDS011;42641;59.794;17.616;2023-03-01T02:25:21;1.40;;;0.70;;
56770;SDS011;42641;59.794;17.616;2023-03-01T02:30:26;2.93;;;1.00;;
56770;SDS011;42641;59.794;17.616;2023-03-01T02:32:54;3.10;;;0.90;;
56770;SDS011;42641;59.794;17.616;2023-03-01T02:35:29;0.70;;;0.63;;
56770;SDS011;42641;59.794;17.616;2023-03-01T02:37:58;1.70;;;0.70;;
56770;SDS011;42641;59.794;17.616;2023-03-01T02:40:28;1.00;;;0.60;;
56770;SDS011;42641;59.794;17.616;2023-03-01T02:42:57;2.43;;;0.80;;
56770;SDS011;42641;59.794;17.616;2023-03-01T02:45:26;1.53;;;0.70;;
56770;SDS011;42641;59.794;17.616;2023-03-01T02:47:53;1.87;;;0.93;;
56770;SDS011;42641;59.794;17.616;2023-03-01T02:55:32;0.93;;;0.70;;
56770;SDS011;42641;59.794;17.616;2023-03-01T02:57:58;0.63;;;0.60;;
56770;SDS011;42641;59.794;17.616;2023-03-01T03:00:36;2.47;;;0.67;;
56770;SDS011;42641;59.794;17.616;2023-03-01T03:03:06;3.10;;;0.90;;
56770;SDS011;42641;59.794;17.616;2023-03-01T03:05:33;1.57;;;0.87;;
56770;SDS011;42641;59.794;17.616;2023-03-01T03:08:01;0.70;;;0.70;;
56770;SDS011;42641;59.794;17.616;2023-03-01T03:10:32;1.30;;;0.67;;
56770;SDS011;42641;59.794;17.616;2023-03-01T03:13:03;1.27;;;0.70;;
56770;SDS011;42641;59.794;17.616;2023-03-01T03:15:33;0.80;;;0.57;;
56770;SDS011;42641;59.794;17.616;2023-03-01T03:18:03;1.53;;;0.50;;
56770;SDS011;42641;59.794;17.616;2023-03-01T03:20:31;1.87;;;0.77;;
56770;SDS011;42641;59.794;17.616;2023-03-01T03:22:59;1.60;;;0.80;;
56770;SDS011;42641;59.794;17.616;2023-03-01T03:25:26;5.87;;;0.70;;
56770;SDS011;42641;59.794;17.616;2023-03-01T03:27:53;1.33;;;0.60;;
56770;SDS011;42641;59.794;17.616;2023-03-01T03:30:23;3.17;;;0.83;;
56770;SDS011;42641;59.794;17.616;2023-03-01T03:32:51;0.70;;;0.70;;
56770;SDS011;42641;59.794;17.616;2023-03-01T03:35:21;2.10;;;0.70;;
56770;SDS011;42641;59.794;17.616;2023-03-01T03:38:01;1.17;;;0.67;;
56770;SDS011;42641;59.794;17.616;2023-03-01T03:40:41;0.77;;;0.70;;
56770;SDS011;42641;59.794;17.616;2023-03-01T03:43:13;0.93;;;0.50;;
56770;SDS011;42641;59.794;17.616;2023-03-01T03:45:43;2.17;;;0.60;;
56770;SDS011;42641;59.794;17.616;2023-03-01T03:48:10;2.40;;;0.97;;
56770;SDS011;42641;59.794;17.616;2023-03-01T03:50:38;1.00;;;0.60;;
56770;SDS011;42641;59.794;17.616;2023-03-01T03:53:09;2.53;;;0.63;;
56770;SDS011;42641;59.794;17.616;2023-03-01T03:55:38;0.63;;;0.63;;
56770;SDS011;42641;59.794;17.616;2023-03-01T03:58:06;0.50;;;0.50;;
56770;SDS011;42641;59.794;17.616;2023-03-01T04:00:34;1.23;;;0.40;;
56770;SDS011;42641;59.794;17.616;2023-03-01T04:03:02;1.87;;;0.57;;
56770;SDS011;42641;59.794;17.616;2023-03-01T04:05:29;0.77;;;0.60;;
56770;SDS011;42641;59.794;17.616;2023-03-01T04:07:56;1.70;;;0.63;;
56770;SDS011;42641;59.794;17.616;2023-03-01T04:10:36;0.97;;;0.47;;
56770;SDS011;42641;59.794;17.616;2023-03-01T04:13:05;0.97;;;0.57;;
56770;SDS011;42641;59.794;17.616;2023-03-01T04:15:32;1.53;;;0.67;;
56770;SDS011;42641;59.794;17.616;2023-03-01T04:17:59;4.70;;;0.80;;
56770;SDS011;42641;59.794;17.616;2023-03-01T04:20:27;0.33;;;0.33;;
56770;SDS011;42641;59.794;17.616;2023-03-01T04:23:15;4.07;;;0.60;;
56770;SDS011;42641;59.794;17.616;2023-03-01T04:25:47;2.23;;;0.60;;
56770;SDS011;42641;59.794;17.616;2023-03-01T04:28:20;0.43;;;0.43;;
56770;SDS011;42641;59.794;17.616;2023-03-01T04:30:46;3.57;;;0.67;;
56770;SDS011;42641;59.794;17.616;2023-03-01T04:33:13;1.03;;;0.60;;
56770;SDS011;42641;59.794;17.616;2023-03-01T04:35:39;1.47;;;0.60;;
56770;SDS011;42641;59.794;17.616;2023-03-01T04:38:06;1.23;;;0.73;;
56770;SDS011;42641;59.794;17.616;2023-03-01T04:40:33;1.77;;;0.70;;
56770;SDS011;42641;59.794;17.616;2023-03-01T04:43:00;1.90;;;0.53;;
56770;SDS011;42641;59.794;17.616;2023-03-01T04:45:27;2.43;;;0.43;;
56770;SDS011;42641;59.794;17.616;2023-03-01T04:47:54;3.13;;;0.67;;
56770;SDS011;42641;59.794;17.616;2023-03-01T04:50:20;1.60;;;0.50;;
56770;SDS011;42641;59.794;17.616;2023-03-01T04:52:48;1.90;;;0.60;;
56770;SDS011;42641;59.794;17.616;2023-03-01T04:55:15;1.33;;;0.47;;
56770;SDS011;42641;59.794;17.616;2023-03-01T04:57:41;2.57;;;0.70;;
56770;SDS011;42641;59.794;17.616;2023-03-01T05:00:09;1.33;;;0.57;;
56770;SDS011;42641;59.794;17.616;2023-03-01T05:02:53;1.23;;;0.50;;
56770;SDS011;42641;59.794;17.616;2023-03-01T05:05:30;0.37;;;0.37;;
56770;SDS011;42641;59.794;17.616;2023-03-01T05:07:59;1.33;;;0.43;;
56770;SDS011;42641;59.794;17.616;2023-03-01T05:10:27;1.37;;;0.47;;
56770;SDS011;42641;59.794;17.616;2023-03-01T05:12:55;1.17;;;0.40;;
56770;SDS011;42641;59.794;17.616;2023-03-01T05:15:23;1.90;;;0.40;;
56770;SDS011;42641;59.794;17.616;2023-03-01T05:17:54;1.00;;;0.47;;
56770;SDS011;42641;59.794;17.616;2023-03-01T05:20:23;1.00;;;0.47;;
56770;SDS011;42641;59.794;17.616;2023-03-01T05:22:52;2.87;;;0.67;;
56770;SDS011;42641;59.794;17.616;2023-03-01T05:25:20;2.40;;;0.80;;
56770;SDS011;42641;59.794;17.616;2023-03-01T05:27:47;0.67;;;0.50;;
56770;SDS011;42641;59.794;17.616;2023-03-01T05:30:14;1.53;;;0.50;;
56770;SDS011;42641;59.794;17.616;2023-03-01T05:32:41;1.13;;;0.50;;
56770;SDS011;42641;59.794;17.616;2023-03-01T05:35:10;1.00;;;0.47;;
56770;SDS011;42641;59.794;17.616;2023-03-01T05:37:44;0.43;;;0.43;;
56770;SDS011;42641;59.794;17.616;2023-03-01T05:40:13;1.67;;;0.50;;
56770;SDS011;42641;59.794;17.616;2023-03-01T05:42:42;0.87;;;0.47;;
56770;SDS011;42641;59.794;17.616;2023-03-01T05:45:18;1.07;;;0.63;;
56770;SDS011;42641;59.794;17.616;2023-03-01T05:47:45;0.93;;;0.60;;
56770;SDS011;42641;59.794;17.616;2023-03-01T05:50:22;1.17;;;0.50;;
56770;SDS011;42641;59.794;17.616;2023-03-01T05:52:52;1.90;;;0.57;;
56770;SDS011;42641;59.794;17.616;2023-03-01T05:55:28;1.23;;;0.53;;
56770;SDS011;42641;59.794;17.616;2023-03-01T05:57:55;1.80;;;0.40;;
56770;SDS011;42641;59.794;17.616;2023-03-01T06:00:24;1.00;;;0.50;;
56770;SDS011;42641;59.794;17.616;2023-03-01T06:02:53;1.87;;;0.50;;
56770;SDS011;42641;59.794;17.616;2023-03-01T06:05:24;2.30;;;0.77;;
56770;SDS011;42641;59.794;17.616;2023-03-01T06:07:52;0.40;;;0.40;;
56770;SDS011;42641;59.794;17.616;2023-03-01T06:10:29;1.90;;;0.40;;
56770;SDS011;42641;59.794;17.616;2023-03-01T06:12:56;0.60;;;0.40;;
56770;SDS011;42641;59.794;17.616;2023-03-01T06:15:24;2.37;;;0.60;;
56770;SDS011;42641;59.794;17.616;2023-03-01T06:17:50;0.80;;;0.60;;
56770;SDS011;42641;59.794;17.616;2023-03-01T06:20:21;1.40;;;0.67;;
56770;SDS011;42641;59.794;17.616;2023-03-01T06:22:48;0.57;;;0.40;;
56770;SDS011;42641;59.794;17.616;2023-03-01T06:25:16;0.50;;;0.50;;
56770;SDS011;42641;59.794;17.616;2023-03-01T06:27:46;0.97;;;0.60;;
56770;SDS011;42641;59.794;17.616;2023-03-01T06:30:13;0.80;;;0.50;;
56770;SDS011;42641;59.794;17.616;2023-03-01T06:32:40;0.40;;;0.40;;
56770;SDS011;42641;59.794;17.616;2023-03-01T06:35:10;1.53;;;0.50;;
56770;SDS011;42641;59.794;17.616;2023-03-01T06:37:38;1.30;;;0.40;;
56770;SDS011;42641;59.794;17.616;2023-03-01T06:40:05;0.90;;;0.67;;
56770;SDS011;42641;59.794;17.616;2023-03-01T06:42:38;1.17;;;0.70;;
56770;SDS011;42641;59.794;17.616;2023-03-01T06:45:06;0.73;;;0.47;;
56770;SDS011;42641;59.794;17.616;2023-03-01T06:47:33;1.00;;;0.77;;
56770;SDS011;42641;59.794;17.616;2023-03-01T06:50:00;0.20;;;0.20;;
56770;SDS011;42641;59.794;17.616;2023-03-01T06:52:27;2.47;;;0.80;;
56770;SDS011;42641;59.794;17.616;2023-03-01T06:54:54;0.87;;;0.70;;
56770;SDS011;42641;59.794;17.616;2023-03-01T06:57:20;2.67;;;0.97;;
56770;SDS011;42641;59.794;17.616;2023-03-01T06:59:47;0.67;;;0.53;;
56770;SDS011;42641;59.794;17.616;2023-03-01T07:02:14;1.00;;;0.87;;
56770;SDS011;42641;59.794;17.616;2023-03-01T07:04:41;2.43;;;1.00;;
56770;SDS011;42641;59.794;17.616;2023-03-01T07:07:08;1.60;;;0.90;;
56770;SDS011;42641;59.794;17.616;2023-03-01T07:09:34;1.57;;;0.90;;
56770;SDS011;42641;59.794;17.616;2023-03-01T07:12:01;1.70;;;0.93;;
56770;SDS011;42641;59.794;17.616;2023-03-01T07:14:28;2.70;;;0.83;;
56770;SDS011;42641;59.794;17.616;2023-03-01T07:16:54;0.90;;;0.83;;
56770;SDS011;42641;59.794;17.616;2023-03-01T07:19:21;1.20;;;1.00;;
56770;SDS011;42641;59.794;17.616;2023-03-01T07:21:48;1.03;;;0.87;;
56770;SDS011;42641;59.794;17.616;2023-03-01T07:24:14;1.27;;;0.93;;
56770;SDS011;42641;59.794;17.616;2023-03-01T07:26:41;3.87;;;1.17;;
56770;SDS011;42641;59.794;17.616;2023-03-01T07:29:07;2.37;;;1.00;;
56770;SDS011;42641;59.794;17.616;2023-03-01T07:31:36;1.33;;;0.80;;
56770;SDS011;42641;59.794;17.616;2023-03-01T07:34:02;1.73;;;0.90;;
56770;SDS011;42641;59.794;17.616;2023-03-01T07:36:29;0.97;;;0.83;;
56770;SDS011;42641;59.794;17.616;2023-03-01T07:38:55;2.33;;;1.00;;
56770;SDS011;42641;59.794;17.616;2023-03-01T07:41:22;1.23;;;0.73;;
56770;SDS011;42641;59.794;17.616;2023-03-01T07:43:48;4.63;;;1.17;;
56770;SDS011;42641;59.794;17.616;2023-03-01T07:46:15;1.80;;;0.90;;
56770;SDS011;42641;59.794;17.616;2023-03-01T07:48:41;1.70;;;0.90;;
56770;SDS011;42641;59.794;17.616;2023-03-01T07:51:07;0.83;;;0.80;;
56770;SDS011;42641;59.794;17.616;2023-03-01T07:53:35;1.37;;;1.03;;
56770;SDS011;42641;59.794;17.616;2023-03-01T07:56:05;1.33;;;1.00;;
56770;SDS011;42641;59.794;17.616;2023-03-01T07:58:34;0.77;;;0.70;;
56770;SDS011;42641;59.794;17.616;2023-03-01T08:01:03;0.70;;;0.70;;
56770;SDS011;42641;59.794;17.616;2023-03-01T08:03:31;0.90;;;0.80;;
56770;SDS011;42641;59.794;17.616;2023-03-01T08:06:01;1.73;;;1.00;;
56770;SDS011;42641;59.794;17.616;2023-03-01T08:08:29;1.03;;;0.63;;
56770;SDS011;42641;59.794;17.616;2023-03-01T08:10:57;3.37;;;0.90;;
56770;SDS011;42641;59.794;17.616;2023-03-01T08:13:24;1.03;;;0.50;;
56770;SDS011;42641;59.794;17.616;2023-03-01T08:15:51;0.53;;;0.50;;
56770;SDS011;42641;59.794;17.616;2023-03-01T08:18:18;2.10;;;0.53;;
56770;SDS011;42641;59.794;17.616;2023-03-01T08:20:46;1.07;;;0.33;;
56770;SDS011;42641;59.794;17.616;2023-03-01T08:23:13;2.23;;;0.57;;
56770;SDS011;42641;59.794;17.616;2023-03-01T08:25:39;1.23;;;0.50;;
56770;SDS011;42641;59.794;17.616;2023-03-01T08:28:06;0.43;;;0.40;;
56770;SDS011;42641;59.794;17.616;2023-03-01T08:30:32;1.03;;;0.60;;
56770;SDS011;42641;59.794;17.616;2023-03-01T08:33:00;1.07;;;0.40;;
56770;SDS011;42641;59.794;17.616;2023-03-01T08:35:26;0.83;;;0.33;;
56770;SDS011;42641;59.794;17.616;2023-03-01T08:37:53;4.33;;;0.60;;
56770;SDS011;42641;59.794;17.616;2023-03-01T08:40:19;1.73;;;0.60;;
56770;SDS011;42641;59.794;17.616;2023-03-01T08:42:45;1.00;;;0.30;;
56770;SDS011;42641;59.794;17.616;2023-03-01T08:45:12;0.67;;;0.40;;
56770;SDS011;42641;59.794;17.616;2023-03-01T08:47:39;0.70;;;0.70;;
56770;SDS011;42641;59.794;17.616;2023-03-01T08:50:06;0.70;;;0.37;;
56770;SDS011;42641;59.794;17.616;2023-03-01T08:52:33;1.90;;;0.70;;
56770;SDS011;42641;59.794;17.616;2023-03-01T08:54:59;2.10;;;0.50;;
56770;SDS011;42641;59.794;17.616;2023-03-01T08:57:27;0.43;;;0.37;;
56770;SDS011;42641;59.794;17.616;2023-03-01T08:59:53;1.40;;;0.40;;
56770;SDS011;42641;59.794;17.616;2023-03-01T09:02:22;0.70;;;0.50;;
56770;SDS011;42641;59.794;17.616;2023-03-01T09:04:48;0.30;;;0.30;;
56770;SDS011;42641;59.794;17.616;2023-03-01T09:07:14;2.03;;;0.57;;
56770;SDS011;42641;59.794;17.616;2023-03-01T09:09:41;0.87;;;0.60;;
56770;SDS011;42641;59.794;17.616;2023-03-01T09:12:07;0.77;;;0.60;;
56770;SDS011;42641;59.794;17.616;2023-03-01T09:14:33;0.50;;;0.40;;
56770;SDS011;42641;59.794;17.616;2023-03-01T09:17:00;0.90;;;0.50;;
56770;SDS011;42641;59.794;17.616;2023-03-01T09:19:28;0.53;;;0.40;;
56770;SDS011;42641;59.794;17.616;2023-03-01T09:21:55;0.90;;;0.60;;
56770;SDS011;42641;59.794;17.616;2023-03-01T09:24:23;0.67;;;0.50;;
56770;SDS011;42641;59.794;17.616;2023-03-01T09:26:51;1.50;;;0.60;;
56770;SDS011;42641;59.794;17.616;2023-03-01T09:29:20;1.47;;;0.50;;
56770;SDS011;42641;59.794;17.616;2023-03-01T09:31:46;1.43;;;0.43;;
56770;SDS011;42641;59.794;17.616;2023-03-01T09:34:13;2.43;;;0.60;;
56770;SDS011;42641;59.794;17.616;2023-03-01T09:36:45;2.70;;;0.70;;
56770;SDS011;42641;59.794;17.616;2023-03-01T09:39:11;0.33;;;0.33;;
56770;SDS011;42641;59.794;17.616;2023-03-01T09:44:24;0.57;;;0.40;;
56770;SDS011;42641;59.794;17.616;2023-03-01T09:46:58;1.30;;;0.30;;
56770;SDS011;42641;59.794;17.616;2023-03-01T09:49:33;0.47;;;0.47;;
56770;SDS011;42641;59.794;17.616;2023-03-01T09:54:52;1.13;;;0.40;;
56770;SDS011;42641;59.794;17.616;2023-03-01T10:02:47;0.57;;;0.30;;
56770;SDS011;42641;59.794;17.616;2023-03-01T10:10:45;0.90;;;0.57;;
56770;SDS011;42641;59.794;17.616;2023-03-01T10:13:17;2.13;;;0.60;;
56770;SDS011;42641;59.794;17.616;2023-03-01T10:16:00;0.83;;;0.27;;
56770;SDS011;42641;59.794;17.616;2023-03-01T10:18:31;1.90;;;0.60;;
56770;SDS011;42641;59.794;17.616;2023-03-01T10:21:05;0.40;;;0.30;;
56770;SDS011;42641;59.794;17.616;2023-03-01T10:23:44;1.77;;;0.50;;
56770;SDS011;42641;59.794;17.616;2023-03-01T10:29:03;1.00;;;0.60;;
56770;SDS011;42641;59.794;17.616;2023-03-01T10:31:42;2.10;;;0.37;;
56770;SDS011;42641;59.794;17.616;2023-03-01T10:34:10;1.13;;;0.50;;
56770;SDS011;42641;59.794;17.616;2023-03-01T10:36:43;0.63;;;0.50;;
56770;SDS011;42641;59.794;17.616;2023-03-01T10:39:11;1.00;;;0.40;;
56770;SDS011;42641;59.794;17.616;2023-03-01T10:44:46;3.50;;;0.47;;
56770;SDS011;42641;59.794;17.616;2023-03-01T10:47:16;0.30;;;0.30;;
56770;SDS011;42641;59.794;17.616;2023-03-01T10:49:59;0.43;;;0.43;;
56770;SDS011;42641;59.794;17.616;2023-03-01T10:52:33;0.40;;;0.40;;
56770;SDS011;42641;59.794;17.616;2023-03-01T11:03:22;0.40;;;0.40;;
56770;SDS011;42641;59.794;17.616;2023-03-01T11:05:51;0.53;;;0.53;;
56770;SDS011;42641;59.794;17.616;2023-03-01T11:08:31;0.30;;;0.30;;
56770;SDS011;42641;59.794;17.616;2023-03-01T11:13:50;0.70;;;0.40;;
56770;SDS011;42641;59.794;17.616;2023-03-01T11:16:22;0.30;;;0.30;;
56770;SDS011;42641;59.794;17.616;2023-03-01T11:19:04;0.93;;;0.40;;
56770;SDS011;42641;59.794;17.616;2023-03-01T11:24:11;0.30;;;0.30;;
56770;SDS011;42641;59.794;17.616;2023-03-01T11:26:40;0.37;;;0.37;;
56770;SDS011;42641;59.794;17.616;2023-03-01T11:29:16;0.60;;;0.37;;
56770;SDS011;42641;59.794;17.616;2023-03-01T11:32:07;0.43;;;0.43;;
56770;SDS011;42641;59.794;17.616;2023-03-01T11:37:19;0.40;;;0.40;;
56770;SDS011;42641;59.794;17.616;2023-03-01T11:39:52;0.20;;;0.20;;
56770;SDS011;42641;59.794;17.616;2023-03-01T11:42:40;0.60;;;0.23;;
56770;SDS011;42641;59.794;17.616;2023-03-01T11:45:15;0.27;;;0.17;;
56770;SDS011;42641;59.794;17.616;2023-03-01T11:53:17;0.30;;;0.30;;
56770;SDS011;42641;59.794;17.616;2023-03-01T11:56:16;0.20;;;0.20;;
56770;SDS011;42641;59.794;17.616;2023-03-01T11:59:07;0.88;;;0.50;;
56770;SDS011;42641;59.794;17.616;2023-03-01T12:15:33;0.32;;;0.30;;
56770;SDS011;42641;59.794;17.616;2023-03-01T12:18:17;0.30;;;0.30;;
56770;SDS011;42641;59.794;17.616;2023-03-01T12:20:58;0.20;;;0.20;;
56770;SDS011;42641;59.794;17.616;2023-03-01T12:28:54;1.57;;;0.50;;
56770;SDS011;42641;59.794;17.616;2023-03-01T12:42:28;1.83;;;0.40;;
56770;SDS011;42641;59.794;17.616;2023-03-01T12:48:03;0.30;;;0.30;;
56770;SDS011;42641;59.794;17.616;2023-03-01T12:50:41;2.10;;;0.50;;
56770;SDS011;42641;59.794;17.616;2023-03-01T12:53:17;0.33;;;0.30;;
56770;SDS011;42641;59.794;17.616;2023-03-01T12:55:53;1.47;;;0.33;;
56770;SDS011;42641;59.794;17.616;2023-03-01T13:09:48;0.30;;;0.30;;
56770;SDS011;42641;59.794;17.616;2023-03-01T13:17:48;0.30;;;0.30;;
56770;SDS011;42641;59.794;17.616;2023-03-01T13:23:09;0.37;;;0.20;;
56770;SDS011;42641;59.794;17.616;2023-03-01T13:31:26;0.37;;;0.30;;
56770;SDS011;42641;59.794;17.616;2023-03-01T13:33:57;0.63;;;0.37;;
56770;SDS011;42641;59.794;17.616;2023-03-01T13:39:03;0.30;;;0.30;;
56770;SDS011;42641;59.794;17.616;2023-03-01T13:46:42;0.50;;;0.40;;
56770;SDS011;42641;59.794;17.616;2023-03-01T13:49:20;0.30;;;0.20;;
56770;SDS011;42641;59.794;17.616;2023-03-01T13:51:49;0.87;;;0.57;;
56770;SDS011;42641;59.794;17.616;2023-03-01T13:54:18;0.47;;;0.40;;
56770;SDS011;42641;59.794;17.616;2023-03-01T13:56:57;0.17;;;0.17;;
56770;SDS011;42641;59.794;17.616;2023-03-01T13:59:26;0.30;;;0.30;;
56770;SDS011;42641;59.794;17.616;2023-03-01T14:04:27;0.50;;;0.30;;
56770;SDS011;42641;59.794;17.616;2023-03-01T14:09:40;0.40;;;0.30;;
56770;SDS011;42641;59.794;17.616;2023-03-01T14:15:02;2.07;;;0.30;;
56770;SDS011;42641;59.794;17.616;2023-03-01T14:17:44;0.53;;;0.33;;
56770;SDS011;42641;59.794;17.616;2023-03-01T14:20:40;0.60;;;0.37;;
56770;SDS011;42641;59.794;17.616;2023-03-01T14:23:12;0.53;;;0.43;;
56770;SDS011;42641;59.794;17.616;2023-03-01T14:26:15;0.87;;;0.40;;
56770;SDS011;42641;59.794;17.616;2023-03-01T14:28:35;0.43;;;0.30;;
56770;SDS011;42641;59.794;17.616;2023-03-01T14:31:29;1.00;;;0.30;;
56770;SDS011;42641;59.794;17.616;2023-03-01T14:33:54;0.60;;;0.40;;
56770;SDS011;42641;59.794;17.616;2023-03-01T14:36:26;2.07;;;0.30;;
56770;SDS011;42641;59.794;17.616;2023-03-01T14:38:54;0.83;;;0.30;;
56770;SDS011;42641;59.794;17.616;2023-03-01T14:41:22;0.23;;;0.20;;
56770;SDS011;42641;59.794;17.616;2023-03-01T14:43:52;0.60;;;0.40;;
56770;SDS011;42641;59.794;17.616;2023-03-01T14:46:25;0.20;;;0.20;;
56770;SDS011;42641;59.794;17.616;2023-03-01T14:48:57;0.40;;;0.40;;
56770;SDS011;42641;59.794;17.616;2023-03-01T14:57:15;1.33;;;0.40;;
56770;SDS011;42641;59.794;17.616;2023-03-01T14:59:42;0.33;;;0.33;;
56770;SDS011;42641;59.794;17.616;2023-03-01T15:02:13;0.30;;;0.30;;
56770;SDS011;42641;59.794;17.616;2023-03-01T15:04:51;0.63;;;0.40;;
56770;SDS011;42641;59.794;17.616;2023-03-01T15:07:22;2.87;;;0.40;;
56770;SDS011;42641;59.794;17.616;2023-03-01T15:09:57;1.97;;;0.40;;
56770;SDS011;42641;59.794;17.616;2023-03-01T15:14:54;0.70;;;0.50;;
56770;SDS011;42641;59.794;17.616;2023-03-01T15:17:34;0.73;;;0.40;;
56770;SDS011;42641;59.794;17.616;2023-03-01T15:20:13;2.50;;;0.43;;
56770;SDS011;42641;59.794;17.616;2023-03-01T15:22:43;0.80;;;0.60;;
56770;SDS011;42641;59.794;17.616;2023-03-01T15:25:32;0.90;;;0.47;;
56770;SDS011;42641;59.794;17.616;2023-03-01T15:28:00;1.17;;;0.50;;
56770;SDS011;42641;59.794;17.616;2023-03-01T15:30:32;0.90;;;0.50;;
56770;SDS011;42641;59.794;17.616;2023-03-01T15:33:19;1.70;;;0.50;;
56770;SDS011;42641;59.794;17.616;2023-03-01T15:35:56;0.30;;;0.30;;
56770;SDS011;42641;59.794;17.616;2023-03-01T15:38:31;1.30;;;0.70;;
56770;SDS011;42641;59.794;17.616;2023-03-01T15:41:29;0.30;;;0.30;;
56770;SDS011;42641;59.794;17.616;2023-03-01T15:43:59;0.97;;;0.50;;
56770;SDS011;42641;59.794;17.616;2023-03-01T15:46:39;0.73;;;0.50;;
56770;SDS011;42641;59.794;17.616;2023-03-01T15:52:13;0.53;;;0.47;;
56770;SDS011;42641;59.794;17.616;2023-03-01T15:54:58;1.10;;;0.50;;
56770;SDS011;42641;59.794;17.616;2023-03-01T15:57:26;0.60;;;0.33;;
56770;SDS011;42641;59.794;17.616;2023-03-01T15:59:53;1.90;;;0.43;;
56770;SDS011;42641;59.794;17.616;2023-03-01T16:02:19;0.50;;;0.50;;
56770;SDS011;42641;59.794;17.616;2023-03-01T16:04:47;1.87;;;0.40;;
56770;SDS011;42641;59.794;17.616;2023-03-01T16:07:16;0.40;;;0.40;;
56770;SDS011;42641;59.794;17.616;2023-03-01T16:09:43;1.17;;;0.40;;
56770;SDS011;42641;59.794;17.616;2023-03-01T16:12:12;1.07;;;0.50;;
56770;SDS011;42641;59.794;17.616;2023-03-01T16:14:41;0.80;;;0.60;;
56770;SDS011;42641;59.794;17.616;2023-03-01T16:17:08;0.50;;;0.50;;
56770;SDS011;42641;59.794;17.616;2023-03-01T16:19:36;0.20;;;0.20;;
56770;SDS011;42641;59.794;17.616;2023-03-01T16:22:03;0.30;;;0.30;;
56770;SDS011;42641;59.794;17.616;2023-03-01T16:24:30;0.30;;;0.30;;
56770;SDS011;42641;59.794;17.616;2023-03-01T16:26:56;0.80;;;0.40;;
56770;SDS011;42641;59.794;17.616;2023-03-01T16:29:23;0.33;;;0.33;;
56770;SDS011;42641;59.794;17.616;2023-03-01T16:31:49;0.87;;;0.40;;
56770;SDS011;42641;59.794;17.616;2023-03-01T16:34:16;0.80;;;0.60;;
56770;SDS011;42641;59.794;17.616;2023-03-01T16:36:42;1.00;;;0.50;;
56770;SDS011;42641;59.794;17.616;2023-03-01T16:39:09;0.63;;;0.50;;
56770;SDS011;42641;59.794;17.616;2023-03-01T16:41:35;1.27;;;0.60;;
56770;SDS011;42641;59.794;17.616;2023-03-01T16:44:01;0.77;;;0.60;;
56770;SDS011;42641;59.794;17.616;2023-03-01T16:46:28;0.63;;;0.60;;
56770;SDS011;42641;59.794;17.616;2023-03-01T16:48:55;0.93;;;0.57;;
56770;SDS011;42641;59.794;17.616;2023-03-01T16:51:22;2.90;;;0.67;;
56770;SDS011;42641;59.794;17.616;2023-03-01T16:53:50;0.50;;;0.50;;
56770;SDS011;42641;59.794;17.616;2023-03-01T16:56:17;0.93;;;0.40;;
56770;SDS011;42641;59.794;17.616;2023-03-01T16:58:44;2.17;;;0.57;;
56770;SDS011;42641;59.794;17.616;2023-03-01T17:01:12;0.47;;;0.47;;
56770;SDS011;42641;59.794;17.616;2023-03-01T17:03:44;0.93;;;0.70;;
56770;SDS011;42641;59.794;17.616;2023-03-01T17:06:13;2.27;;;0.60;;
56770;SDS011;42641;59.794;17.616;2023-03-01T17:08:41;2.17;;;1.10;;
56770;SDS011;42641;59.794;17.616;2023-03-01T17:11:08;0.90;;;0.60;;
56770;SDS011;42641;59.794;17.616;2023-03-01T17:13:37;0.47;;;0.47;;